createdAt,value
2023-06-12T00:00:13.987Z,65.16
2023-06-12T00:01:18.683Z,65.37
2023-06-12T00:02:21.553Z,65.28
2023-06-12T00:03:26.522Z,65.26
2023-06-12T00:04:30.954Z,65.39
2023-06-12T00:05:33.838Z,65.52
2023-06-12T00:06:38.468Z,65.53
2023-06-12T00:07:41.246Z,65.42
2023-06-12T00:08:44.915Z,65.33
2023-06-12T00:09:47.948Z,65.35
2023-06-12T00:10:50.679Z,64.98
2023-06-12T00:11:53.474Z,65.26
2023-06-12T00:12:56.301Z,65.60
2023-06-12T00:13:59.305Z,65.53
2023-06-12T00:15:02.026Z,65.35
2023-06-12T00:16:05.027Z,65.42
2023-06-12T00:17:07.780Z,65.61
2023-06-12T00:18:12.274Z,65.67
2023-06-12T00:19:15.666Z,65.18
2023-06-12T00:20:18.414Z,65.31
2023-06-12T00:21:22.895Z,65.56
2023-06-12T00:22:25.774Z,65.59
2023-06-12T00:23:28.484Z,65.85
2023-06-12T00:24:31.204Z,65.51
2023-06-12T00:25:34.439Z,65.67
2023-06-12T00:26:37.154Z,65.52
2023-06-12T00:27:39.902Z,65.57
2023-06-12T00:28:42.664Z,65.40
2023-06-12T00:29:45.398Z,65.73
2023-06-12T00:30:48.657Z,65.63
2023-06-12T00:31:51.423Z,65.72
2023-06-12T00:32:54.259Z,65.72
2023-06-12T00:33:56.989Z,65.68
2023-06-12T00:34:59.950Z,65.83
2023-06-12T00:36:02.664Z,65.89
2023-06-12T00:37:06.298Z,65.77
2023-06-12T00:38:09.332Z,65.87
2023-06-12T00:39:12.055Z,65.75
2023-06-12T00:40:17.417Z,65.50
2023-06-12T00:41:20.323Z,65.38
2023-06-12T00:42:23.153Z,65.79
2023-06-12T00:43:25.890Z,65.77
2023-06-12T00:44:28.603Z,65.82
2023-06-12T00:45:31.771Z,65.73
2023-06-12T00:46:34.575Z,65.72
2023-06-12T00:47:37.729Z,65.81
2023-06-12T00:48:41.998Z,65.89
2023-06-12T00:49:44.722Z,65.81
2023-06-12T00:50:48.234Z,65.87
2023-06-12T00:51:53.739Z,65.99
2023-06-12T00:52:58.677Z,65.87
2023-06-12T00:54:01.993Z,66.14
2023-06-12T00:55:06.071Z,65.98
2023-06-12T00:56:08.788Z,66.07
2023-06-12T00:58:33.392Z,66.01
2023-06-12T00:59:37.002Z,66.11
2023-06-12T01:00:40.233Z,65.99
2023-06-12T01:01:43.346Z,66.06
2023-06-12T01:02:52.661Z,66.05
2023-06-12T01:03:57.679Z,66.00
2023-06-12T01:05:01.030Z,66.13
2023-06-12T01:06:10.202Z,65.97
2023-06-12T01:07:30.599Z,66.21
2023-06-12T01:08:48.129Z,66.13
2023-06-12T01:10:13.653Z,66.29
2023-06-12T01:11:19.047Z,66.07
2023-06-12T01:12:23.220Z,66.08
2023-06-12T01:13:26.922Z,65.91
2023-06-12T01:14:30.120Z,66.02
2023-06-12T01:15:32.853Z,65.99
2023-06-12T01:16:35.696Z,66.03
2023-06-12T01:17:41.859Z,66.03
2023-06-12T01:18:44.942Z,65.94
2023-06-12T01:19:47.914Z,66.08
2023-06-12T01:20:52.493Z,66.07
2023-06-12T01:22:04.508Z,65.99
2023-06-12T01:23:19.543Z,66.56
2023-06-12T01:24:41.952Z,65.99
2023-06-12T01:26:09.666Z,65.86
2023-06-12T01:27:40.657Z,65.85
2023-06-12T01:28:52.376Z,66.07
2023-06-12T01:30:04.293Z,65.97
2023-06-12T01:31:15.406Z,66.12
2023-06-12T01:32:18.272Z,66.09
2023-06-12T01:33:31.693Z,66.10
2023-06-12T01:34:58.557Z,66.17
2023-06-12T01:36:11.516Z,66.30
2023-06-12T01:37:26.457Z,66.46
2023-06-12T01:38:33.848Z,66.38
2023-06-12T01:39:41.718Z,66.54
2023-06-12T01:40:48.115Z,66.47
2023-06-12T01:41:52.015Z,66.26
2023-06-12T01:42:55.498Z,66.36
2023-06-12T01:44:11.699Z,66.60
2023-06-12T01:45:16.123Z,66.53
2023-06-12T01:46:20.113Z,66.50
2023-06-12T01:47:24.179Z,66.53
2023-06-12T01:48:28.181Z,66.04
2023-06-12T01:49:32.290Z,66.63
2023-06-12T01:50:37.348Z,66.69
2023-06-12T01:51:40.111Z,66.52
2023-06-12T01:52:45.210Z,66.51
2023-06-12T01:53:47.937Z,66.29
2023-06-12T01:54:51.634Z,66.40
2023-06-12T01:55:57.945Z,66.44
2023-06-12T01:57:03.746Z,66.25
2023-06-12T01:58:10.143Z,66.36
2023-06-12T01:59:52.770Z,66.30
2023-06-12T02:00:58.588Z,66.21
2023-06-12T02:02:03.205Z,66.39
2023-06-12T02:03:06.069Z,66.27
2023-06-12T02:04:08.904Z,66.35
2023-06-12T02:05:11.881Z,66.31
2023-06-12T02:06:18.378Z,66.42
2023-06-12T02:07:22.198Z,66.38
2023-06-12T02:08:25.232Z,66.39
2023-06-12T02:09:27.988Z,66.42
2023-06-12T02:10:31.000Z,66.32
2023-06-12T02:11:33.804Z,66.58
2023-06-12T02:12:36.507Z,66.60
2023-06-12T02:13:39.268Z,66.45
2023-06-12T02:14:44.670Z,66.31
2023-06-12T02:15:47.490Z,66.53
2023-06-12T02:16:50.559Z,66.53
2023-06-12T02:17:53.374Z,66.67
2023-06-12T02:18:56.740Z,66.94
2023-06-12T02:20:00.951Z,66.57
2023-06-12T02:21:03.663Z,66.58
2023-06-12T02:22:06.855Z,66.64
2023-06-12T02:23:09.702Z,66.73
2023-06-12T02:24:12.635Z,66.54
2023-06-12T02:25:15.463Z,66.81
2023-06-12T02:26:18.585Z,66.63
2023-06-12T02:27:21.405Z,66.65
2023-06-12T02:28:24.326Z,66.59
2023-06-12T02:29:27.057Z,66.76
2023-06-12T02:30:32.379Z,66.58
2023-06-12T02:31:35.376Z,66.62
2023-06-12T02:32:39.778Z,66.82
2023-06-12T02:33:42.567Z,66.80
2023-06-12T02:34:45.496Z,66.82
2023-06-12T02:35:48.454Z,66.64
2023-06-12T02:36:52.128Z,66.84
2023-06-12T02:38:03.771Z,66.66
2023-06-12T02:39:14.233Z,66.80
2023-06-12T02:40:19.117Z,66.72
2023-06-12T02:41:23.227Z,66.71
2023-06-12T02:42:26.165Z,66.58
2023-06-12T02:43:29.249Z,66.69
2023-06-12T02:44:31.978Z,66.59
2023-06-12T02:45:34.901Z,66.80
2023-06-12T02:46:55.009Z,66.62
2023-06-12T02:48:01.797Z,66.72
2023-06-12T02:49:05.404Z,66.49
2023-06-12T02:50:08.332Z,66.55
2023-06-12T02:51:19.922Z,66.67
2023-06-12T02:52:22.657Z,66.71
2023-06-12T02:53:25.464Z,66.62
2023-06-12T02:54:29.443Z,66.70
2023-06-12T02:55:40.917Z,66.60
2023-06-12T02:56:46.428Z,67.00
2023-06-12T02:57:49.187Z,66.80
2023-06-12T02:58:51.950Z,66.63
2023-06-12T02:59:54.666Z,66.83
2023-06-12T03:01:05.451Z,66.48
2023-06-12T03:02:08.343Z,66.74
2023-06-12T03:03:17.806Z,66.50
2023-06-12T03:04:22.129Z,66.89
2023-06-12T03:05:27.078Z,66.85
2023-06-12T03:06:32.782Z,66.99
2023-06-12T03:07:38.184Z,67.05
2023-06-12T03:08:42.253Z,66.97
2023-06-12T03:09:47.278Z,67.17
2023-06-12T03:10:50.600Z,67.09
2023-06-12T03:11:54.488Z,67.05
2023-06-12T03:12:57.248Z,67.05
2023-06-12T03:14:00.165Z,67.02
2023-06-12T03:15:03.996Z,67.22
2023-06-12T03:16:10.920Z,67.16
2023-06-12T03:17:13.888Z,67.06
2023-06-12T03:18:16.625Z,67.07
2023-06-12T03:19:19.553Z,66.86
2023-06-12T03:20:25.915Z,67.10
2023-06-12T03:21:28.753Z,66.95
2023-06-12T03:22:31.522Z,67.14
2023-06-12T03:23:34.288Z,66.83
2023-06-12T03:24:38.506Z,66.97
2023-06-12T03:25:41.336Z,66.86
2023-06-12T03:26:44.292Z,66.78
2023-06-12T03:27:47.689Z,66.83
2023-06-12T03:28:50.481Z,66.85
2023-06-12T03:29:53.663Z,66.85
2023-06-12T03:30:56.810Z,66.68
2023-06-12T03:31:59.953Z,66.98
2023-06-12T03:33:11.524Z,66.88
2023-06-12T03:34:16.364Z,66.85
2023-06-12T03:35:21.466Z,66.83
2023-06-12T03:36:26.364Z,67.01
2023-06-12T03:37:29.648Z,66.93
2023-06-12T03:38:36.455Z,67.16
2023-06-12T03:39:39.353Z,67.04
2023-06-12T03:40:43.038Z,66.81
2023-06-12T03:41:57.661Z,66.97
2023-06-12T03:43:08.391Z,66.99
2023-06-12T03:44:11.139Z,67.26
2023-06-12T03:45:13.890Z,67.23
2023-06-12T03:46:17.090Z,67.01
2023-06-12T03:47:19.879Z,66.90
2023-06-12T03:48:22.613Z,67.28
2023-06-12T03:49:26.098Z,67.16
2023-06-12T03:50:28.829Z,67.16
2023-06-12T03:51:34.803Z,67.22
2023-06-12T03:52:37.679Z,67.10
2023-06-12T03:53:40.934Z,67.17
2023-06-12T03:54:43.668Z,67.12
2023-06-12T03:55:46.644Z,67.08
2023-06-12T03:56:49.471Z,67.31
2023-06-12T03:57:53.415Z,67.22
2023-06-12T03:58:56.415Z,67.01
2023-06-12T03:59:59.128Z,67.12
2023-06-12T04:01:01.884Z,66.97
2023-06-12T04:02:05.096Z,67.21
2023-06-12T04:03:10.571Z,67.49
2023-06-12T04:04:13.916Z,67.62
2023-06-12T04:05:16.664Z,67.12
2023-06-12T04:06:19.856Z,67.08
2023-06-12T04:07:23.567Z,67.08
2023-06-12T04:08:26.317Z,67.07
2023-06-12T04:09:29.073Z,66.88
2023-06-12T04:10:34.515Z,67.21
2023-06-12T04:11:40.059Z,67.15
2023-06-12T04:12:42.797Z,67.04
2023-06-12T04:13:45.715Z,66.86
2023-06-12T04:14:48.462Z,67.16
2023-06-12T04:15:51.311Z,67.17
2023-06-12T04:16:54.064Z,67.44
2023-06-12T04:17:58.743Z,67.11
2023-06-12T04:19:04.669Z,66.72
2023-06-12T04:20:10.667Z,66.97
2023-06-12T04:21:13.799Z,67.13
2023-06-12T04:22:17.998Z,67.20
2023-06-12T04:23:21.031Z,67.00
2023-06-12T04:24:23.944Z,67.26
2023-06-12T04:25:27.771Z,67.02
2023-06-12T04:26:35.779Z,67.08
2023-06-12T04:27:43.985Z,67.04
2023-06-12T04:28:47.877Z,66.80
2023-06-12T04:29:50.611Z,67.27
2023-06-12T04:30:53.354Z,67.10
2023-06-12T04:31:59.461Z,67.22
2023-06-12T04:33:03.809Z,67.28
2023-06-12T04:34:07.355Z,67.09
2023-06-12T04:35:10.214Z,67.25
2023-06-12T04:36:14.969Z,67.19
2023-06-12T04:37:19.608Z,67.64
2023-06-12T04:38:24.857Z,67.41
2023-06-12T04:39:30.594Z,67.62
2023-06-12T04:40:37.823Z,67.28
2023-06-12T04:41:41.501Z,67.42
2023-06-12T04:42:44.654Z,67.10
2023-06-12T04:43:51.151Z,67.20
2023-06-12T04:44:54.154Z,67.35
2023-06-12T04:45:58.404Z,67.47
2023-06-12T04:47:12.498Z,67.52
2023-06-12T04:48:15.331Z,67.52
2023-06-12T04:49:18.484Z,67.31
2023-06-12T04:50:21.213Z,67.33
2023-06-12T04:51:24.914Z,67.20
2023-06-12T04:52:27.754Z,67.14
2023-06-12T04:53:31.684Z,67.08
2023-06-12T04:54:41.391Z,67.02
2023-06-12T04:55:45.322Z,66.81
2023-06-12T04:56:49.408Z,66.90
2023-06-12T04:57:54.070Z,67.08
2023-06-12T04:58:58.752Z,66.89
2023-06-12T05:00:01.624Z,66.68
2023-06-12T05:01:05.440Z,66.77
2023-06-12T05:02:09.658Z,67.07
2023-06-12T05:03:12.482Z,66.86
2023-06-12T05:04:15.385Z,66.84
2023-06-12T05:05:20.528Z,66.79
2023-06-12T05:06:25.863Z,67.33
2023-06-12T05:07:29.642Z,67.43
2023-06-12T05:08:37.661Z,67.99
2023-06-12T05:09:46.993Z,67.88
2023-06-12T05:10:49.748Z,68.52
2023-06-12T05:11:52.860Z,68.48
2023-06-12T05:12:55.710Z,68.82
2023-06-12T05:13:58.433Z,68.73
2023-06-12T05:15:01.608Z,68.93
2023-06-12T05:16:05.366Z,68.75
2023-06-12T05:17:08.370Z,68.50
2023-06-12T05:18:11.242Z,68.35
2023-06-12T05:19:14.497Z,68.23
2023-06-12T05:20:17.277Z,68.37
2023-06-12T05:21:20.366Z,68.46
2023-06-12T05:22:23.356Z,68.17
2023-06-12T05:23:26.184Z,67.90
2023-06-12T05:24:28.925Z,67.47
2023-06-12T05:25:31.722Z,67.46
2023-06-12T05:26:34.556Z,67.49
2023-06-12T05:27:39.230Z,67.55
2023-06-12T05:28:44.411Z,67.37
2023-06-12T05:29:47.229Z,67.47
2023-06-12T05:30:50.101Z,67.32
2023-06-12T05:31:55.036Z,67.08
2023-06-12T05:32:59.583Z,67.25
2023-06-12T05:34:02.376Z,67.08
2023-06-12T05:35:05.571Z,67.08
2023-06-12T05:36:08.963Z,67.09
2023-06-12T05:37:11.984Z,66.95
2023-06-12T05:38:14.721Z,66.97
2023-06-12T05:39:17.492Z,67.15
2023-06-12T05:40:20.290Z,66.91
2023-06-12T05:41:23.148Z,67.03
2023-06-12T05:42:26.899Z,66.99
2023-06-12T05:43:29.603Z,67.04
2023-06-12T05:44:32.760Z,66.75
2023-06-12T05:45:37.297Z,66.75
2023-06-12T05:46:40.174Z,66.89
2023-06-12T05:47:43.408Z,66.93
2023-06-12T05:48:46.197Z,66.79
2023-06-12T05:49:49.792Z,67.03
2023-06-12T05:50:52.709Z,66.79
2023-06-12T05:51:55.521Z,66.14
2023-06-12T05:52:58.267Z,67.15
2023-06-12T05:54:03.223Z,66.53
2023-06-12T05:55:06.892Z,67.09
2023-06-12T05:56:11.110Z,66.65
2023-06-12T05:57:15.126Z,66.67
2023-06-12T05:58:19.740Z,66.72
2023-06-12T05:59:24.557Z,66.56
2023-06-12T06:00:27.486Z,66.46
2023-06-12T06:01:36.628Z,66.06
2023-06-12T06:02:39.899Z,66.32
2023-06-12T06:03:46.221Z,66.25
2023-06-12T06:04:49.452Z,66.26
2023-06-12T06:05:52.502Z,65.69
2023-06-12T06:06:56.259Z,65.94
2023-06-12T06:07:59.003Z,65.45
2023-06-12T06:09:02.233Z,65.75
2023-06-12T06:10:06.884Z,65.50
2023-06-12T06:11:09.658Z,65.64
2023-06-12T06:12:12.736Z,65.67
2023-06-12T06:13:15.753Z,65.30
2023-06-12T06:14:19.428Z,64.82
2023-06-12T06:15:22.328Z,65.12
2023-06-12T06:16:36.947Z,65.35
2023-06-12T06:17:51.679Z,62.78
2023-06-12T06:18:54.701Z,59.75
2023-06-12T06:19:57.564Z,55.59
2023-06-12T06:21:00.289Z,56.24
2023-06-12T06:22:06.440Z,49.35
2023-06-12T06:23:16.047Z,49.19
2023-06-12T06:24:21.726Z,49.61
2023-06-12T06:25:26.472Z,46.77
2023-06-12T06:26:29.557Z,47.23
2023-06-12T06:27:33.058Z,48.28
2023-06-12T06:28:36.115Z,48.82
2023-06-12T06:29:39.763Z,47.62
2023-06-12T06:30:43.265Z,47.15
2023-06-12T06:31:46.151Z,48.06
2023-06-12T06:32:48.949Z,47.51
2023-06-12T06:33:51.857Z,45.90
2023-06-12T06:34:54.575Z,45.61
2023-06-12T06:36:01.537Z,44.66
2023-06-12T06:37:04.920Z,45.47
2023-06-12T06:38:07.933Z,43.72
2023-06-12T06:39:10.680Z,44.99
2023-06-12T06:40:15.807Z,45.42
2023-06-12T06:41:18.762Z,45.12
2023-06-12T06:42:22.196Z,47.50
2023-06-12T06:43:38.427Z,45.50
2023-06-12T06:44:44.592Z,44.63
2023-06-12T06:45:47.554Z,45.54
2023-06-12T06:46:50.448Z,46.15
2023-06-12T06:47:54.003Z,45.61
2023-06-12T06:48:57.653Z,44.71
2023-06-12T06:50:01.413Z,46.75
2023-06-12T06:51:05.225Z,45.17
2023-06-12T06:52:08.915Z,45.65
2023-06-12T06:53:12.139Z,43.23
2023-06-12T06:54:14.949Z,43.06
2023-06-12T06:55:17.722Z,42.88
2023-06-12T06:56:20.581Z,41.98
2023-06-12T06:57:24.275Z,42.73
2023-06-12T06:58:27.137Z,42.79
2023-06-12T06:59:29.860Z,43.38
2023-06-12T07:00:33.103Z,42.49
2023-06-12T07:01:36.186Z,42.26
2023-06-12T07:02:41.809Z,43.49
2023-06-12T07:03:46.924Z,45.90
2023-06-12T07:04:51.863Z,43.32
2023-06-12T07:05:55.138Z,42.92
2023-06-12T07:06:57.953Z,44.58
2023-06-12T07:08:02.926Z,44.50
2023-06-12T07:09:09.776Z,44.44
2023-06-12T07:10:12.597Z,43.02
2023-06-12T07:11:15.314Z,43.57
2023-06-12T07:12:18.883Z,43.15
2023-06-12T07:13:21.703Z,42.65
2023-06-12T07:14:29.405Z,41.64
2023-06-12T07:15:32.952Z,41.75
2023-06-12T07:16:36.442Z,41.71
2023-06-12T07:17:39.273Z,42.19
2023-06-12T07:18:41.997Z,42.09
2023-06-12T07:19:45.020Z,41.38
2023-06-12T07:20:47.904Z,41.61
2023-06-12T07:21:51.145Z,43.20
2023-06-12T07:22:53.876Z,43.52
2023-06-12T07:23:56.964Z,42.95
2023-06-12T07:24:59.965Z,42.38
2023-06-12T07:26:14.771Z,45.21
2023-06-12T07:27:26.930Z,42.59
2023-06-12T07:28:31.519Z,42.88
2023-06-12T07:29:34.241Z,43.78
2023-06-12T07:30:37.211Z,42.41
2023-06-12T07:31:41.007Z,41.85
2023-06-12T07:32:43.775Z,44.57
2023-06-12T07:33:46.738Z,43.52
2023-06-12T07:34:49.763Z,42.81
2023-06-12T07:35:52.573Z,42.59
2023-06-12T07:36:55.296Z,43.22
2023-06-12T07:37:58.018Z,42.20
2023-06-12T07:39:00.823Z,44.04
2023-06-12T07:40:08.711Z,42.51
2023-06-12T07:41:11.813Z,41.66
2023-06-12T07:42:15.678Z,41.03
2023-06-12T07:43:18.415Z,39.59
2023-06-12T07:44:21.433Z,40.52
2023-06-12T07:45:24.175Z,39.56
2023-06-12T07:46:27.038Z,39.57
2023-06-12T07:47:30.261Z,40.68
2023-06-12T07:48:33.036Z,41.30
2023-06-12T07:49:36.093Z,40.99
2023-06-12T07:50:40.364Z,40.92
2023-06-12T07:51:43.495Z,40.71
2023-06-12T07:52:46.258Z,43.12
2023-06-12T07:53:50.495Z,41.22
2023-06-12T07:54:55.840Z,40.44
2023-06-12T07:55:58.711Z,41.09
2023-06-12T07:57:03.952Z,41.52
2023-06-12T07:58:09.302Z,41.86
2023-06-12T07:59:13.493Z,43.19
2023-06-12T08:00:23.684Z,42.21
2023-06-12T08:01:26.993Z,40.92
2023-06-12T08:02:32.898Z,42.09
2023-06-12T08:03:41.038Z,41.67
2023-06-12T08:04:45.884Z,42.16
2023-06-12T08:05:50.912Z,40.86
2023-06-12T08:06:55.468Z,40.60
2023-06-12T08:08:00.939Z,42.27
2023-06-12T08:09:04.137Z,41.00
2023-06-12T08:10:08.966Z,40.92
2023-06-12T08:11:13.154Z,40.00
2023-06-12T08:12:17.598Z,41.38
2023-06-12T08:13:20.582Z,41.04
2023-06-12T08:14:23.320Z,41.41
2023-06-12T08:15:26.168Z,40.46
2023-06-12T08:16:28.978Z,39.92
2023-06-12T08:17:32.807Z,38.42
2023-06-12T08:18:36.301Z,38.56
2023-06-12T08:19:40.486Z,38.89
2023-06-12T08:20:43.249Z,38.94
2023-06-12T08:21:46.091Z,40.36
2023-06-12T08:22:48.915Z,41.71
2023-06-12T08:23:52.912Z,41.69
2023-06-12T08:24:56.432Z,42.98
2023-06-12T08:25:59.174Z,42.96
2023-06-12T08:27:02.584Z,44.01
2023-06-12T08:28:06.463Z,45.08
2023-06-12T08:29:10.234Z,45.72
2023-06-12T08:30:13.664Z,46.08
2023-06-12T08:31:17.127Z,46.28
2023-06-12T08:32:19.886Z,44.39
2023-06-12T08:33:22.615Z,42.96
2023-06-12T08:34:27.154Z,40.97
2023-06-12T08:35:31.025Z,41.48
2023-06-12T08:36:36.523Z,41.93
2023-06-12T08:37:39.928Z,44.11
2023-06-12T08:38:44.287Z,44.99
2023-06-12T08:39:50.111Z,45.32
2023-06-12T08:40:59.991Z,45.54
2023-06-12T08:42:09.106Z,46.05
2023-06-12T08:43:12.503Z,46.58
2023-06-12T08:44:17.152Z,46.72
2023-06-12T08:45:24.079Z,46.49
2023-06-12T08:46:32.102Z,46.58
2023-06-12T08:47:36.772Z,47.25
2023-06-12T08:48:39.902Z,47.34
2023-06-12T08:49:44.056Z,47.29
2023-06-12T08:50:47.445Z,47.11
2023-06-12T08:51:51.325Z,47.85
2023-06-12T08:52:56.679Z,47.72
2023-06-12T08:54:02.223Z,47.24
2023-06-12T08:55:09.236Z,47.64
2023-06-12T08:56:13.497Z,47.04
2023-06-12T08:57:17.164Z,43.66
2023-06-12T08:58:19.993Z,41.27
2023-06-12T08:59:23.177Z,39.98
2023-06-12T09:00:25.910Z,39.67
2023-06-12T09:01:30.118Z,39.41
2023-06-12T09:02:33.284Z,39.63
2023-06-12T09:03:38.517Z,39.60
2023-06-12T09:04:56.774Z,40.23
2023-06-12T09:06:06.714Z,40.17
2023-06-12T09:07:09.772Z,40.69
2023-06-12T09:08:13.198Z,39.16
2023-06-12T09:09:15.929Z,40.04
2023-06-12T09:10:19.245Z,39.54
2023-06-12T09:11:22.049Z,39.75
2023-06-12T09:12:25.179Z,40.90
2023-06-12T09:13:41.575Z,41.31
2023-06-12T09:14:47.055Z,43.16
2023-06-12T09:15:54.199Z,42.47
2023-06-12T09:16:56.970Z,43.38
2023-06-12T09:17:59.789Z,40.67
2023-06-12T09:19:04.392Z,38.24
2023-06-12T09:20:07.681Z,38.79
2023-06-12T09:21:10.928Z,39.37
2023-06-12T09:22:14.380Z,39.17
2023-06-12T09:23:17.482Z,40.93
2023-06-12T09:24:21.861Z,40.41
2023-06-12T09:25:33.882Z,39.25
2023-06-12T09:26:38.549Z,38.13
2023-06-12T09:27:45.315Z,39.61
2023-06-12T09:28:51.343Z,40.37
2023-06-12T09:30:00.648Z,41.87
2023-06-12T09:31:05.826Z,41.55
2023-06-12T09:32:12.112Z,41.73
2023-06-12T09:33:14.979Z,42.03
2023-06-12T09:34:18.260Z,42.18
2023-06-12T09:35:20.996Z,39.31
2023-06-12T09:36:44.148Z,40.58
2023-06-12T09:37:46.910Z,42.51
2023-06-12T09:38:52.927Z,41.66
2023-06-12T09:40:12.425Z,39.91
2023-06-12T09:41:15.175Z,39.98
2023-06-12T09:42:19.752Z,39.63
2023-06-12T09:43:22.516Z,41.23
2023-06-12T09:44:29.208Z,42.45
2023-06-12T09:45:31.944Z,43.03
2023-06-12T09:46:34.711Z,43.04
2023-06-12T09:47:46.169Z,44.36
2023-06-12T09:50:18.132Z,42.01
2023-06-12T09:51:21.338Z,41.46
2023-06-12T09:52:25.129Z,42.07
2023-06-12T09:53:30.630Z,40.52
2023-06-12T09:54:34.254Z,41.23
2023-06-12T09:55:40.806Z,40.44
2023-06-12T09:56:48.644Z,42.42
2023-06-12T09:57:51.684Z,43.19
2023-06-12T09:58:54.931Z,43.60
2023-06-12T10:00:03.461Z,42.10
2023-06-12T10:01:19.035Z,40.95
2023-06-12T10:02:22.118Z,40.30
2023-06-12T10:03:27.492Z,40.12
2023-06-12T10:04:43.351Z,39.05
2023-06-12T10:05:51.352Z,40.22
2023-06-12T10:07:02.815Z,40.40
2023-06-12T10:08:06.812Z,40.35
2023-06-12T10:09:11.854Z,41.93
2023-06-12T10:10:16.181Z,41.35
2023-06-12T10:11:19.529Z,41.18
2023-06-12T10:12:23.782Z,41.53
2023-06-12T10:13:27.158Z,41.01
2023-06-12T10:14:31.060Z,40.60
2023-06-12T10:15:33.778Z,39.64
2023-06-12T10:16:38.947Z,41.97
2023-06-12T10:17:42.205Z,42.58
2023-06-12T10:18:45.172Z,41.68
2023-06-12T10:19:51.493Z,40.02
2023-06-12T10:20:55.590Z,37.94
2023-06-12T10:21:59.788Z,38.21
2023-06-12T10:23:04.205Z,39.03
2023-06-12T10:24:07.677Z,40.36
2023-06-12T10:25:11.770Z,40.25
2023-06-12T10:26:15.595Z,40.98
2023-06-12T10:27:19.934Z,39.32
2023-06-12T10:28:25.662Z,38.19
2023-06-12T10:29:34.570Z,39.45
2023-06-12T10:30:37.509Z,37.60
2023-06-12T10:31:41.085Z,37.88
2023-06-12T10:32:46.177Z,38.27
2023-06-12T10:34:00.827Z,37.57
2023-06-12T10:35:03.551Z,37.04
2023-06-12T10:36:13.215Z,37.23
2023-06-12T10:37:24.853Z,37.29
2023-06-12T10:38:27.581Z,36.75
2023-06-12T10:39:31.029Z,37.75
2023-06-12T10:40:47.825Z,38.79
2023-06-12T10:41:54.891Z,38.65
2023-06-12T10:43:05.577Z,37.25
2023-06-12T10:44:43.493Z,37.71
2023-06-12T10:45:58.322Z,37.56
2023-06-12T10:47:03.563Z,39.13
2023-06-12T10:48:06.587Z,38.29
2023-06-12T10:49:09.370Z,39.75
2023-06-12T10:50:12.269Z,39.38
2023-06-12T10:51:15.216Z,39.74
2023-06-12T10:52:22.006Z,41.04
2023-06-12T10:53:30.904Z,40.36
2023-06-12T10:54:35.057Z,40.38
2023-06-12T10:55:39.428Z,39.31
2023-06-12T10:56:59.636Z,40.11
2023-06-12T10:58:08.507Z,40.93
2023-06-12T10:59:15.352Z,41.41
2023-06-12T11:00:19.879Z,39.69
2023-06-12T11:01:25.009Z,40.09
2023-06-12T11:02:28.040Z,41.12
2023-06-12T11:03:31.324Z,40.89
2023-06-12T11:04:41.062Z,40.29
2023-06-12T11:06:01.203Z,39.71
2023-06-12T11:07:05.043Z,39.38
2023-06-12T11:08:08.647Z,39.22
2023-06-12T11:09:12.966Z,38.32
2023-06-12T11:10:16.436Z,35.92
2023-06-12T11:11:19.205Z,36.10
2023-06-12T11:12:21.929Z,36.95
2023-06-12T11:13:25.817Z,39.05
2023-06-12T11:14:32.805Z,38.72
2023-06-12T11:15:49.275Z,38.85
2023-06-12T11:16:58.461Z,38.75
2023-06-12T11:18:01.263Z,38.65
2023-06-12T11:19:07.009Z,38.26
2023-06-12T11:20:10.671Z,37.43
2023-06-12T11:21:14.482Z,38.51
2023-06-12T11:22:18.064Z,39.10
2023-06-12T11:23:28.501Z,37.52
2023-06-12T11:24:31.399Z,38.29
2023-06-12T11:25:44.025Z,37.90
2023-06-12T11:26:51.777Z,36.69
2023-06-12T11:27:55.658Z,37.42
2023-06-12T11:29:13.447Z,37.89
2023-06-12T11:30:31.493Z,38.28
2023-06-12T11:31:38.501Z,37.59
2023-06-12T11:32:43.831Z,37.25
2023-06-12T11:33:46.568Z,37.33
2023-06-12T11:34:52.803Z,37.44
2023-06-12T11:35:59.956Z,36.42
2023-06-12T11:37:20.982Z,35.63
2023-06-12T11:40:35.318Z,35.54
2023-06-12T11:41:38.435Z,36.98
2023-06-12T11:42:42.995Z,36.92
2023-06-12T11:43:45.770Z,35.02
2023-06-12T11:44:52.412Z,35.55
2023-06-12T11:45:57.548Z,35.03
2023-06-12T11:49:10.143Z,33.89
2023-06-12T11:49:33.404Z,34.04
2023-06-12T11:50:37.301Z,34.16
2023-06-12T11:51:40.644Z,32.77
2023-06-12T11:52:49.348Z,31.84
2023-06-12T11:53:52.584Z,32.22
2023-06-12T11:57:31.405Z,30.48
2023-06-12T11:58:42.002Z,30.09
2023-06-12T11:59:46.785Z,32.01
2023-06-12T12:00:51.102Z,31.40
2023-06-12T12:01:54.011Z,31.70
2023-06-12T12:03:02.583Z,31.43
2023-06-12T12:04:06.800Z,31.31
2023-06-12T12:05:17.691Z,31.08
2023-06-12T12:06:20.598Z,30.48
2023-06-12T12:07:23.370Z,30.42
2023-06-12T12:08:27.166Z,30.09
2023-06-12T12:09:29.937Z,29.81
2023-06-12T12:10:34.431Z,30.25
2023-06-12T12:11:37.188Z,30.33
2023-06-12T12:12:40.964Z,31.24
2023-06-12T12:13:51.051Z,31.14
2023-06-12T12:14:53.785Z,31.45
2023-06-12T12:15:56.560Z,31.96
2023-06-12T12:17:05.308Z,30.67
2023-06-12T12:18:15.633Z,28.80
2023-06-12T12:19:19.236Z,28.96
2023-06-12T12:20:24.396Z,31.30
2023-06-12T12:21:27.718Z,30.10
2023-06-12T12:22:30.432Z,29.21
2023-06-12T12:23:33.162Z,31.14
2023-06-12T12:24:38.819Z,31.46
2023-06-12T12:25:45.953Z,30.83
2023-06-12T12:26:52.448Z,29.70
2023-06-12T12:27:57.827Z,29.73
2023-06-12T12:29:00.608Z,29.43
2023-06-12T12:30:07.508Z,31.52
2023-06-12T12:31:10.273Z,32.59
2023-06-12T12:32:13.017Z,32.65
2023-06-12T12:33:16.280Z,31.21
2023-06-12T12:34:19.252Z,30.02
2023-06-12T12:35:23.407Z,30.16
2023-06-12T12:36:26.120Z,31.01
2023-06-12T12:37:28.861Z,30.46
2023-06-12T12:38:31.580Z,30.64
2023-06-12T12:39:34.415Z,29.88
2023-06-12T12:40:37.129Z,32.17
2023-06-12T12:41:39.879Z,32.71
2023-06-12T12:42:43.575Z,31.29
2023-06-12T12:43:46.326Z,29.58
2023-06-12T12:44:49.070Z,30.11
2023-06-12T12:45:51.805Z,29.72
2023-06-12T12:46:54.578Z,31.83
2023-06-12T12:47:57.407Z,30.76
2023-06-12T12:49:00.208Z,30.30
2023-06-12T12:50:17.127Z,29.45
2023-06-12T12:51:24.057Z,29.67
2023-06-12T12:52:37.066Z,31.82
2023-06-12T12:53:40.702Z,29.87
2023-06-12T12:54:43.579Z,29.14
2023-06-12T12:55:46.322Z,28.26
2023-06-12T12:56:49.782Z,29.33
2023-06-12T12:57:56.998Z,30.11
2023-06-12T12:59:08.059Z,30.06
2023-06-12T13:00:13.681Z,29.84
2023-06-12T13:01:16.881Z,28.79
2023-06-12T13:02:19.647Z,28.77
2023-06-12T13:03:22.574Z,28.72
2023-06-12T13:04:25.568Z,29.17
2023-06-12T13:05:28.294Z,29.02
2023-06-12T13:06:31.008Z,29.71
2023-06-12T13:07:37.331Z,31.08
2023-06-12T13:08:40.250Z,31.12
2023-06-12T13:09:42.983Z,28.56
2023-06-12T13:10:45.730Z,30.24
2023-06-12T13:11:48.457Z,32.46
2023-06-12T13:12:51.597Z,32.51
2023-06-12T13:13:54.388Z,32.45
2023-06-12T13:14:57.130Z,32.55
2023-06-12T13:15:59.886Z,31.41
2023-06-12T13:17:02.772Z,31.56
2023-06-12T13:18:05.765Z,31.27
2023-06-12T13:19:08.533Z,31.71
2023-06-12T13:20:12.705Z,32.16
2023-06-12T13:21:15.691Z,32.61
2023-06-12T13:22:18.404Z,30.44
2023-06-12T13:23:21.713Z,31.24
2023-06-12T13:24:24.609Z,32.09
2023-06-12T13:25:27.395Z,29.63
2023-06-12T13:26:30.127Z,30.39
2023-06-12T13:27:32.851Z,30.88
2023-06-12T13:28:36.121Z,31.13
2023-06-12T13:29:39.082Z,28.12
2023-06-12T13:30:41.823Z,31.62
2023-06-12T13:31:44.578Z,31.54
2023-06-12T13:32:48.036Z,30.52
2023-06-12T13:33:50.856Z,30.05
2023-06-12T13:34:53.614Z,29.76
2023-06-12T13:35:56.350Z,29.43
2023-06-12T13:36:59.096Z,28.77
2023-06-12T13:38:01.831Z,30.35
2023-06-12T13:39:04.643Z,31.19
2023-06-12T13:40:08.337Z,29.02
2023-06-12T13:41:11.543Z,29.78
2023-06-12T13:42:14.491Z,29.35
2023-06-12T13:43:17.919Z,29.23
2023-06-12T13:44:20.936Z,29.54
2023-06-12T13:45:24.002Z,28.62
2023-06-12T13:46:28.237Z,27.94
2023-06-12T13:47:31.531Z,26.44
2023-06-12T13:48:34.260Z,28.19
2023-06-12T13:49:37.235Z,27.13
2023-06-12T13:50:39.992Z,29.33
2023-06-12T13:51:42.748Z,27.46
2023-06-12T13:52:46.455Z,27.31
2023-06-12T13:53:53.244Z,28.73
2023-06-12T13:54:55.961Z,27.66
2023-06-12T13:55:58.700Z,28.08
2023-06-12T13:57:01.534Z,27.65
2023-06-12T13:58:10.429Z,27.55
2023-06-12T13:59:14.700Z,27.41
2023-06-12T14:00:17.830Z,25.69
2023-06-12T14:01:20.629Z,27.04
2023-06-12T14:02:23.385Z,27.53
2023-06-12T14:03:27.498Z,26.99
2023-06-12T14:04:30.315Z,27.93